createdAt,value
2022-11-12T00:01:12.092Z,8.60
2022-11-12T00:03:40.227Z,8.50
2022-11-12T00:06:09.655Z,8.50
2022-11-12T00:08:37.707Z,8.50
2022-11-12T00:11:06.025Z,8.50
2022-11-12T00:13:34.001Z,8.50
2022-11-12T00:16:01.975Z,8.50
2022-11-12T00:18:30.023Z,8.50
2022-11-12T00:20:58.228Z,8.50
2022-11-12T00:23:27.601Z,8.40
2022-11-12T00:26:02.160Z,8.40
2022-11-12T00:28:34.789Z,8.40
2022-11-12T00:31:10.498Z,8.40
2022-11-12T00:33:42.022Z,8.40
2022-11-12T00:36:10.200Z,8.30
2022-11-12T00:38:39.497Z,8.40
2022-11-12T00:41:07.494Z,8.30
2022-11-12T00:43:35.613Z,8.30
2022-11-12T00:46:03.721Z,8.30
2022-11-12T00:48:31.696Z,8.30
2022-11-12T00:51:04.010Z,8.30
2022-11-12T00:53:31.999Z,8.20
2022-11-12T00:56:06.137Z,8.20
2022-11-12T00:58:36.036Z,8.20
2022-11-12T01:01:09.031Z,8.30
2022-11-12T01:03:37.843Z,8.20
2022-11-12T01:06:07.010Z,8.20
2022-11-12T01:08:35.430Z,8.20
2022-11-12T01:11:09.898Z,8.20
2022-11-12T01:13:43.948Z,8.20
2022-11-12T01:16:14.713Z,8.20
2022-11-12T01:18:43.229Z,8.20
2022-11-12T01:21:11.487Z,8.20
2022-11-12T01:23:40.902Z,8.20
2022-11-12T01:26:11.905Z,8.20
2022-11-12T01:28:40.683Z,8.20
2022-11-12T01:31:13.475Z,8.10
2022-11-12T01:33:42.136Z,8.10
2022-11-12T01:36:10.678Z,8.10
2022-11-12T01:38:40.274Z,8.10
2022-11-12T01:41:12.001Z,8.10
2022-11-12T01:43:40.337Z,8.10
2022-11-12T01:46:18.836Z,8.10
2022-11-12T01:48:53.167Z,8.10
2022-11-12T01:51:22.582Z,8.10
2022-11-12T01:53:55.430Z,8.10
2022-11-12T01:56:42.463Z,8.10
2022-11-12T01:59:18.052Z,8.00
2022-11-12T02:01:46.020Z,8.00
2022-11-12T02:04:14.073Z,8.00
2022-11-12T02:06:44.376Z,8.00
2022-11-12T02:09:12.656Z,7.90
2022-11-12T02:11:42.022Z,7.90
2022-11-12T02:14:09.160Z,7.90
2022-11-12T02:16:39.472Z,7.90
2022-11-12T02:19:08.851Z,7.90
2022-11-12T02:21:38.289Z,7.90
2022-11-12T02:24:08.012Z,7.90
2022-11-12T02:26:40.041Z,7.90
2022-11-12T02:29:08.259Z,7.90
2022-11-12T02:31:36.548Z,7.90
2022-11-12T02:34:04.913Z,7.90
2022-11-12T02:36:32.884Z,7.90
2022-11-12T02:39:02.244Z,7.90
2022-11-12T02:41:30.256Z,7.90
2022-11-12T02:43:58.297Z,7.90
2022-11-12T02:46:26.306Z,7.90
2022-11-12T02:48:54.231Z,7.90
2022-11-12T02:51:22.209Z,7.90
2022-11-12T02:53:50.177Z,7.90
2022-11-12T02:56:19.501Z,7.90
2022-11-12T02:58:47.473Z,7.90
2022-11-12T03:01:15.482Z,7.90
2022-11-12T03:03:43.451Z,7.90
2022-11-12T03:06:11.407Z,7.90
2022-11-12T03:08:39.389Z,7.80
2022-11-12T03:11:08.500Z,7.80
2022-11-12T03:13:38.364Z,7.80
2022-11-12T03:16:06.879Z,7.70
2022-11-12T03:18:35.045Z,7.70
2022-11-12T03:21:03.040Z,7.70
2022-11-12T03:23:31.038Z,7.70
2022-11-12T03:25:59.022Z,7.70
2022-11-12T03:28:27.207Z,7.70
2022-11-12T03:30:58.813Z,7.60
2022-11-12T03:33:26.955Z,7.60
2022-11-12T03:35:55.214Z,7.60
2022-11-12T03:38:23.474Z,7.60
2022-11-12T03:40:51.634Z,7.60
2022-11-12T03:43:19.606Z,7.50
2022-11-12T03:45:47.772Z,7.50
2022-11-12T03:48:17.088Z,7.50
2022-11-12T03:50:45.108Z,7.50
2022-11-12T03:53:13.418Z,7.50
2022-11-12T03:55:41.664Z,7.50
2022-11-12T03:58:09.619Z,7.50
2022-11-12T04:00:37.717Z,7.50
2022-11-12T04:03:05.664Z,7.40
2022-11-12T04:05:52.865Z,7.40
2022-11-12T04:08:38.554Z,7.40
2022-11-12T04:11:09.054Z,7.40
2022-11-12T04:13:38.315Z,7.40
2022-11-12T04:16:26.037Z,7.50
2022-11-12T04:19:14.066Z,7.50
2022-11-12T04:21:55.804Z,7.40
2022-11-12T04:24:43.605Z,7.40
2022-11-12T04:27:15.024Z,7.40
2022-11-12T04:30:00.782Z,7.40
2022-11-12T04:32:29.189Z,7.30
2022-11-12T04:34:57.405Z,7.30
2022-11-12T04:37:28.658Z,7.30
2022-11-12T04:40:16.659Z,7.20
2022-11-12T04:43:06.654Z,7.20
2022-11-12T04:45:35.286Z,7.20
2022-11-12T04:48:03.237Z,7.20
2022-11-12T04:50:31.361Z,7.20
2022-11-12T04:53:00.757Z,7.20
2022-11-12T04:55:28.712Z,7.20
2022-11-12T04:58:00.605Z,7.10
2022-11-12T05:00:29.509Z,7.10
2022-11-12T05:02:57.464Z,7.10
2022-11-12T05:05:28.567Z,7.10
2022-11-12T05:08:02.385Z,7.00
2022-11-12T05:10:31.187Z,7.00
2022-11-12T05:12:59.533Z,7.00
2022-11-12T05:15:27.501Z,7.00
2022-11-12T05:17:55.472Z,7.00
2022-11-12T05:20:23.459Z,7.00
2022-11-12T05:23:05.503Z,7.00
2022-11-12T05:25:35.640Z,7.00
2022-11-12T05:28:05.665Z,7.00
2022-11-12T05:30:34.780Z,7.00
2022-11-12T05:33:02.764Z,7.00
2022-11-12T05:35:30.730Z,6.90
2022-11-12T05:37:58.688Z,6.90
2022-11-12T05:40:26.632Z,6.90
2022-11-12T05:42:55.966Z,6.90
2022-11-12T05:45:23.938Z,6.90
2022-11-12T05:47:51.919Z,6.90
2022-11-12T05:50:20.279Z,6.90
2022-11-12T05:52:48.220Z,6.80
2022-11-12T05:55:16.397Z,6.80
2022-11-12T05:57:44.350Z,6.80
2022-11-12T06:00:14.926Z,6.80
2022-11-12T06:02:43.192Z,6.70
2022-11-12T06:05:11.381Z,6.70
2022-11-12T06:07:39.607Z,6.60
2022-11-12T06:10:08.616Z,6.70
2022-11-12T06:12:36.597Z,6.70
2022-11-12T06:15:04.990Z,6.70
2022-11-12T06:17:34.478Z,6.70
2022-11-12T06:20:02.751Z,6.60
2022-11-12T06:22:30.717Z,6.60
2022-11-12T06:24:58.637Z,6.50
2022-11-12T06:27:26.746Z,6.50
2022-11-12T06:29:54.738Z,6.50
2022-11-12T06:32:22.794Z,6.50
2022-11-12T06:34:53.635Z,6.50
2022-11-12T06:37:22.237Z,6.40
2022-11-12T06:39:50.629Z,6.40
2022-11-12T06:42:18.961Z,6.40
2022-11-12T06:44:46.897Z,6.40
2022-11-12T06:47:14.959Z,6.40
2022-11-12T06:49:42.893Z,6.40
2022-11-12T06:52:16.445Z,6.50
2022-11-12T06:54:44.716Z,6.50
2022-11-12T06:57:12.824Z,6.50
2022-11-12T06:59:40.797Z,6.50
2022-11-12T07:02:09.045Z,6.50
2022-11-12T07:04:37.045Z,6.50
2022-11-12T07:07:09.449Z,6.50
2022-11-12T07:09:40.152Z,6.50
2022-11-12T07:12:08.511Z,6.50
2022-11-12T07:14:36.553Z,6.50
2022-11-12T07:17:04.531Z,6.50
2022-11-12T07:19:32.560Z,6.50
2022-11-12T07:22:00.575Z,6.50
2022-11-12T07:24:28.601Z,6.50
2022-11-12T07:26:57.918Z,6.50
2022-11-12T07:29:46.509Z,6.50
2022-11-12T07:32:13.790Z,6.50
2022-11-12T07:34:41.807Z,6.50
2022-11-12T07:37:09.800Z,6.50
2022-11-12T07:39:37.732Z,6.50
2022-11-12T07:42:07.116Z,6.50
2022-11-12T07:44:35.215Z,6.60
2022-11-12T07:47:03.173Z,6.70
2022-11-12T07:49:31.119Z,6.80
2022-11-12T07:51:59.091Z,6.90
2022-11-12T07:54:27.042Z,7.00
2022-11-12T07:56:54.994Z,7.00
2022-11-12T07:59:24.387Z,7.00
2022-11-12T08:01:52.474Z,7.10
2022-11-12T08:04:20.432Z,7.20
2022-11-12T08:06:49.464Z,7.20
2022-11-12T08:09:17.702Z,7.30
2022-11-12T08:11:45.673Z,7.40
2022-11-12T08:14:13.644Z,7.40
2022-11-12T08:16:43.044Z,7.50
2022-11-12T08:19:10.987Z,7.60
2022-11-12T08:21:38.937Z,7.60
2022-11-12T08:24:07.483Z,7.70
2022-11-12T08:26:35.446Z,7.80
2022-11-12T08:29:08.378Z,7.90
2022-11-12T08:31:37.027Z,8.00
2022-11-12T08:34:14.369Z,8.00
2022-11-12T08:36:45.428Z,8.10
2022-11-12T08:39:13.421Z,8.20
2022-11-12T08:41:41.382Z,8.30
2022-11-12T08:44:09.347Z,8.40
2022-11-12T08:46:37.333Z,8.50
2022-11-12T08:49:06.680Z,8.50
2022-11-12T08:51:34.729Z,8.60
2022-11-12T08:54:02.820Z,8.70
2022-11-12T08:56:30.865Z,8.70
2022-11-12T08:58:58.839Z,8.80
2022-11-12T09:01:26.950Z,8.90
2022-11-12T09:03:54.985Z,8.90
2022-11-12T09:06:24.447Z,9.00
2022-11-12T09:08:52.421Z,9.00
2022-11-12T09:11:20.407Z,9.10
2022-11-12T09:13:48.564Z,9.20
2022-11-12T09:16:18.059Z,9.20
2022-11-12T09:18:46.046Z,9.30
2022-11-12T09:21:14.290Z,9.30
2022-11-12T09:23:43.585Z,9.40
2022-11-12T09:26:11.525Z,9.40
2022-11-12T09:28:39.489Z,9.40
2022-11-12T09:31:10.356Z,9.50
2022-11-12T09:33:38.344Z,9.60
2022-11-12T09:36:07.082Z,9.70
2022-11-12T09:38:35.228Z,9.80
2022-11-12T09:41:17.257Z,9.80
2022-11-12T09:43:51.095Z,9.90
2022-11-12T09:46:29.799Z,10.00
2022-11-12T09:49:04.530Z,10.10
2022-11-12T09:51:36.947Z,10.10
2022-11-12T09:54:14.742Z,10.20
2022-11-12T09:56:44.185Z,10.20
2022-11-12T09:59:13.871Z,10.30
2022-11-12T10:02:01.638Z,10.40
2022-11-12T10:04:49.321Z,10.40
2022-11-12T10:07:27.307Z,10.50
2022-11-12T10:10:03.948Z,10.50
2022-11-12T10:12:45.494Z,10.60
2022-11-12T10:15:55.826Z,10.60
2022-11-12T10:18:38.204Z,10.70
2022-11-12T10:21:15.303Z,10.70
2022-11-12T10:23:46.074Z,10.80
2022-11-12T10:26:15.761Z,10.90
2022-11-12T10:28:49.070Z,10.90
2022-11-12T10:31:18.652Z,11.00
2022-11-12T10:33:46.949Z,11.00
2022-11-12T10:36:25.754Z,11.10
2022-11-12T10:38:55.764Z,11.30
2022-11-12T10:41:26.314Z,11.30
2022-11-12T10:43:59.249Z,11.40
2022-11-12T10:46:29.769Z,11.50
2022-11-12T10:49:01.961Z,11.50
2022-11-12T10:51:33.351Z,11.50
2022-11-12T10:54:19.750Z,11.60
2022-11-12T10:56:55.011Z,11.60
2022-11-12T10:59:26.206Z,11.60
2022-11-12T11:01:59.656Z,11.70
2022-11-12T11:04:31.822Z,11.80
2022-11-12T11:07:02.720Z,11.70
2022-11-12T11:09:30.846Z,11.80
2022-11-12T11:11:59.140Z,11.90
2022-11-12T11:14:32.057Z,11.90
2022-11-12T11:17:02.253Z,11.90
2022-11-12T11:19:36.307Z,12.00
2022-11-12T11:22:12.427Z,12.00
2022-11-12T11:24:50.550Z,12.00
2022-11-12T11:27:30.531Z,12.10
2022-11-12T11:30:11.068Z,12.10
2022-11-12T11:33:19.222Z,12.20
2022-11-12T11:36:06.983Z,12.30
2022-11-12T11:38:45.841Z,12.40
2022-11-12T11:41:30.450Z,12.40
2022-11-12T11:44:12.803Z,12.40
2022-11-12T11:46:55.639Z,12.50
2022-11-12T11:49:37.554Z,12.50
2022-11-12T11:52:15.493Z,12.60
2022-11-12T11:55:03.280Z,12.60
2022-11-12T11:57:38.601Z,12.60
2022-11-12T12:00:16.479Z,12.60
2022-11-12T12:03:20.621Z,12.60
2022-11-12T12:06:03.623Z,12.60
2022-11-12T12:08:49.128Z,12.60
2022-11-12T12:11:22.125Z,12.70
2022-11-12T12:14:05.248Z,12.70
2022-11-12T12:16:50.665Z,12.70
2022-11-12T12:19:33.246Z,12.70
2022-11-12T12:22:05.676Z,12.80
2022-11-12T12:24:48.062Z,12.70
2022-11-12T12:27:20.347Z,12.80
2022-11-12T12:29:51.953Z,12.80
2022-11-12T12:32:24.447Z,12.80
2022-11-12T12:34:59.978Z,12.80
2022-11-12T12:37:37.101Z,12.70
2022-11-12T12:40:10.942Z,12.80
2022-11-12T12:42:43.982Z,12.80
2022-11-12T12:45:36.291Z,12.80
2022-11-12T12:48:07.153Z,12.80
2022-11-12T12:50:39.929Z,12.80
2022-11-12T12:53:18.897Z,12.80
2022-11-12T12:55:49.178Z,12.80
2022-11-12T12:58:20.494Z,12.80
2022-11-12T13:00:52.086Z,12.80
2022-11-12T13:03:59.687Z,12.70
2022-11-12T13:06:32.518Z,12.70
2022-11-12T13:09:05.078Z,12.70
2022-11-12T13:12:11.363Z,12.70
2022-11-12T13:15:10.994Z,12.70
2022-11-12T13:17:50.994Z,12.60
2022-11-12T13:20:41.484Z,12.60
2022-11-12T13:24:05.593Z,12.60
2022-11-12T13:26:46.223Z,12.60
2022-11-12T13:29:41.905Z,12.50
2022-11-12T13:32:37.724Z,12.50
2022-11-12T13:35:26.834Z,12.40
2022-11-12T13:37:56.733Z,12.40
2022-11-12T13:40:47.377Z,12.30
2022-11-12T13:43:31.394Z,12.30
2022-11-12T13:46:04.266Z,12.20
2022-11-12T13:48:37.221Z,12.20
2022-11-12T13:51:08.228Z,12.20
2022-11-12T13:53:36.215Z,12.10
2022-11-12T13:56:05.781Z,12.10
2022-11-12T13:58:34.957Z,12.10
2022-11-12T14:01:04.290Z,12.10
2022-11-12T14:03:36.462Z,12.00
2022-11-12T14:06:14.962Z,12.00
2022-11-12T14:09:07.669Z,12.00
2022-11-12T14:12:03.550Z,12.00
2022-11-12T14:14:47.802Z,12.00
2022-11-12T14:17:25.049Z,11.90
2022-11-12T14:20:24.937Z,11.90
2022-11-12T14:22:54.209Z,11.80
2022-11-12T14:25:24.811Z,11.70
2022-11-12T14:27:55.430Z,11.70
2022-11-12T14:30:26.231Z,11.60
2022-11-12T14:32:58.951Z,11.60
2022-11-12T14:35:30.986Z,11.50
2022-11-12T14:38:05.227Z,11.50
2022-11-12T14:40:36.369Z,11.40
2022-11-12T14:43:06.138Z,11.30
2022-11-12T14:45:35.517Z,11.30
2022-11-12T14:48:03.775Z,11.20
2022-11-12T14:50:40.182Z,11.20
2022-11-12T14:53:13.909Z,11.00
2022-11-12T14:55:48.339Z,11.10
2022-11-12T14:58:19.589Z,10.90
2022-11-12T15:00:49.181Z,10.90
2022-11-12T15:03:20.956Z,10.90
2022-11-12T15:05:57.252Z,10.80
2022-11-12T15:08:34.029Z,10.80
2022-11-12T15:11:24.639Z,10.70
2022-11-12T15:13:57.438Z,10.60
2022-11-12T15:16:27.573Z,10.60
2022-11-12T15:19:09.211Z,10.50
2022-11-12T15:21:37.834Z,10.50
2022-11-12T15:24:16.973Z,10.50
2022-11-12T15:26:47.025Z,10.40
2022-11-12T15:29:25.440Z,10.40
2022-11-12T15:31:58.006Z,10.30
2022-11-12T15:34:35.168Z,10.30
2022-11-12T15:37:07.790Z,10.30
2022-11-12T15:39:42.599Z,10.20
2022-11-12T15:42:17.692Z,10.10
2022-11-12T15:44:47.552Z,10.10
2022-11-12T15:47:21.625Z,10.10
2022-11-12T15:49:51.267Z,10.00
2022-11-12T15:52:19.637Z,10.00
2022-11-12T15:54:47.793Z,10.00
2022-11-12T15:57:18.427Z,10.00
2022-11-12T15:59:54.806Z,9.90
2022-11-12T16:02:22.932Z,9.80
2022-11-12T16:04:50.907Z,9.70
2022-11-12T16:07:19.063Z,9.70
2022-11-12T16:09:47.108Z,9.60
2022-11-12T16:12:16.217Z,9.50
2022-11-12T16:14:44.169Z,9.50
2022-11-12T16:17:15.683Z,9.50
2022-11-12T16:19:43.687Z,9.40
2022-11-12T16:22:13.454Z,9.40
2022-11-12T16:24:41.634Z,9.40
2022-11-12T16:27:12.645Z,9.40
2022-11-12T16:29:40.643Z,9.40
2022-11-12T16:32:13.474Z,9.40
2022-11-12T16:34:41.819Z,9.40
2022-11-12T16:37:13.312Z,9.40
2022-11-12T16:39:41.385Z,9.30
2022-11-12T16:42:10.711Z,9.20
2022-11-12T16:44:38.779Z,9.20
2022-11-12T16:47:06.913Z,9.20
2022-11-12T16:49:38.884Z,9.20
2022-11-12T16:52:07.157Z,9.10
2022-11-12T16:54:35.222Z,9.10
2022-11-12T16:57:03.188Z,9.00
2022-11-12T16:59:31.195Z,8.90
2022-11-12T17:01:59.761Z,8.90
2022-11-12T17:04:27.770Z,8.90
2022-11-12T17:06:57.127Z,8.90
2022-11-12T17:09:25.187Z,8.90
2022-11-12T17:11:53.159Z,8.80
2022-11-12T17:14:25.494Z,8.80
2022-11-12T17:16:56.059Z,8.80
2022-11-12T17:19:24.117Z,8.80
2022-11-12T17:21:52.171Z,8.80
2022-11-12T17:24:21.779Z,8.70
2022-11-12T17:26:49.777Z,8.70
2022-11-12T17:29:17.910Z,8.60
2022-11-12T17:31:48.776Z,8.60
2022-11-12T17:34:16.753Z,8.60
2022-11-12T17:36:44.798Z,8.60
2022-11-12T17:39:14.210Z,8.50
2022-11-12T17:41:43.597Z,8.50
2022-11-12T17:44:15.964Z,8.40
2022-11-12T17:46:44.179Z,8.40
2022-11-12T17:49:12.341Z,8.40
2022-11-12T17:51:40.521Z,8.30
2022-11-12T17:54:09.410Z,8.30
2022-11-12T17:56:37.530Z,8.30
2022-11-12T17:59:06.834Z,8.30
2022-11-12T18:01:35.441Z,8.20
2022-11-12T18:04:03.540Z,8.20
2022-11-12T18:06:33.880Z,8.20
2022-11-12T18:09:04.512Z,8.20
2022-11-12T18:11:42.055Z,8.20
2022-11-12T18:14:11.478Z,8.20
2022-11-12T18:16:39.544Z,8.10
2022-11-12T18:19:11.053Z,8.10
2022-11-12T18:21:40.442Z,8.10
2022-11-12T18:24:13.380Z,8.00
2022-11-12T18:26:41.383Z,8.00
2022-11-12T18:29:09.478Z,8.00
2022-11-12T18:31:40.416Z,8.00
2022-11-12T18:34:10.520Z,7.90
2022-11-12T18:36:38.502Z,7.90
2022-11-12T18:39:06.955Z,7.90
2022-11-12T18:41:34.961Z,7.90
2022-11-12T18:44:03.155Z,7.90
2022-11-12T18:46:31.166Z,7.90
2022-11-12T18:49:00.545Z,7.90
2022-11-12T18:51:29.008Z,7.90
2022-11-12T18:53:56.982Z,7.80
2022-11-12T18:56:24.977Z,7.70
2022-11-12T18:58:52.972Z,7.70
2022-11-12T19:01:22.767Z,7.70
2022-11-12T19:03:55.129Z,7.70
2022-11-12T19:06:25.473Z,7.70
2022-11-12T19:08:59.137Z,7.70
2022-11-12T19:11:27.142Z,7.70
2022-11-12T19:13:56.196Z,7.70
2022-11-12T19:16:24.627Z,7.70
2022-11-12T19:18:53.381Z,7.70
2022-11-12T19:21:25.066Z,7.70
2022-11-12T19:23:55.270Z,7.70
2022-11-12T19:26:24.665Z,7.60
2022-11-12T19:28:53.195Z,7.60
2022-11-12T19:31:23.415Z,7.50
2022-11-12T19:33:52.137Z,7.50
2022-11-12T19:36:22.355Z,7.50
2022-11-12T19:38:55.635Z,7.50
2022-11-12T19:41:24.276Z,7.40
2022-11-12T19:43:52.764Z,7.40
2022-11-12T19:46:21.515Z,7.50
2022-11-12T19:48:49.832Z,7.50
2022-11-12T19:51:19.787Z,7.40
2022-11-12T19:53:47.808Z,7.50
2022-11-12T19:56:18.825Z,7.50
2022-11-12T19:58:48.097Z,7.50
2022-11-12T20:01:17.776Z,7.40
2022-11-12T20:03:46.182Z,7.40
2022-11-12T20:06:16.223Z,7.30
2022-11-12T20:08:44.254Z,7.20
2022-11-12T20:11:12.495Z,7.20
2022-11-12T20:13:41.913Z,7.20
2022-11-12T20:16:10.799Z,7.30
2022-11-12T20:18:38.907Z,7.20
2022-11-12T20:21:07.799Z,7.20
2022-11-12T20:23:36.944Z,7.10
2022-11-12T20:26:06.499Z,7.10
2022-11-12T20:28:35.016Z,7.10
2022-11-12T20:31:06.890Z,7.00
2022-11-12T20:33:39.363Z,7.00
2022-11-12T20:36:12.418Z,7.00
2022-11-12T20:38:41.811Z,7.00
2022-11-12T20:41:14.525Z,7.00
2022-11-12T20:43:42.868Z,7.00
2022-11-12T20:46:13.823Z,7.00
2022-11-12T20:48:43.605Z,7.00
2022-11-12T20:51:23.768Z,7.00
2022-11-12T20:53:58.893Z,6.90
2022-11-12T20:56:29.258Z,7.00
2022-11-12T20:58:57.741Z,7.00
2022-11-12T21:01:29.034Z,6.90
2022-11-12T21:03:58.348Z,6.90
2022-11-12T21:06:29.594Z,7.00
2022-11-12T21:08:59.692Z,6.90
2022-11-12T21:11:27.740Z,6.90
2022-11-12T21:13:55.786Z,7.00
2022-11-12T21:16:23.789Z,6.90
2022-11-12T21:18:53.171Z,6.90
2022-11-12T21:21:21.509Z,6.90
2022-11-12T21:23:51.422Z,6.90
2022-11-12T21:26:21.254Z,6.90
2022-11-12T21:28:51.657Z,6.90
2022-11-12T21:31:21.667Z,6.90
2022-11-12T21:33:56.199Z,6.80
2022-11-12T21:36:24.584Z,6.80
2022-11-12T21:38:52.934Z,6.70
2022-11-12T21:41:22.867Z,6.80
2022-11-12T21:43:51.607Z,6.80
2022-11-12T21:46:21.643Z,6.70
2022-11-12T21:48:54.785Z,6.70
2022-11-12T21:51:26.104Z,6.70
2022-11-12T21:53:55.863Z,6.60
2022-11-12T21:56:24.545Z,6.60
2022-11-12T21:58:54.030Z,6.60
2022-11-12T22:01:24.956Z,6.60
2022-11-12T22:03:54.693Z,6.50
2022-11-12T22:06:26.210Z,6.60
2022-11-12T22:08:55.678Z,6.50
2022-11-12T22:11:24.336Z,6.50
2022-11-12T22:13:52.311Z,6.50
2022-11-12T22:16:21.650Z,6.50
2022-11-12T22:18:51.788Z,6.40
2022-11-12T22:21:21.941Z,6.50
2022-11-12T22:23:51.767Z,6.50
2022-11-12T22:26:21.872Z,6.60
2022-11-12T22:28:50.182Z,6.60
2022-11-12T22:31:19.980Z,6.60
2022-11-12T22:33:48.384Z,6.60
2022-11-12T22:36:18.162Z,6.60
2022-11-12T22:38:48.088Z,6.60
2022-11-12T22:41:19.070Z,6.50
2022-11-12T22:43:48.914Z,6.50
2022-11-12T22:46:19.269Z,6.40
2022-11-12T22:48:47.445Z,6.30
2022-11-12T22:51:18.312Z,6.30
2022-11-12T22:53:46.348Z,6.30
2022-11-12T22:56:17.462Z,6.30
2022-11-12T22:58:47.275Z,6.30
2022-11-12T23:01:20.952Z,6.30
2022-11-12T23:03:49.587Z,6.30
2022-11-12T23:06:18.456Z,6.30
2022-11-12T23:08:46.741Z,6.30
2022-11-12T23:11:19.365Z,6.30
2022-11-12T23:13:47.855Z,6.20
2022-11-12T23:16:17.153Z,6.20
2022-11-12T23:18:45.378Z,6.20
2022-11-12T23:21:15.789Z,6.10
2022-11-12T23:23:44.520Z,6.10
2022-11-12T23:26:14.755Z,6.10
2022-11-12T23:28:44.151Z,6.10
2022-11-12T23:31:14.430Z,6.10
2022-11-12T23:33:45.723Z,6.00
2022-11-12T23:36:14.143Z,6.10
2022-11-12T23:38:42.251Z,6.10
2022-11-12T23:41:11.851Z,6.10
2022-11-12T23:43:39.923Z,6.10
2022-11-12T23:46:09.356Z,6.00
2022-11-12T23:48:37.337Z,6.10
2022-11-12T23:51:07.878Z,6.10
2022-11-12T23:53:36.914Z,6.10
2022-11-12T23:56:06.235Z,6.00
2022-11-12T23:58:34.280Z,6.10
